Portada
METAR-TAF:

METAR-TAF

Aeropuertos :

Vientián, Laos

Aeropuerto Internacional Wattay

latitud: 17-57N, longitud: 102-34E, altitud: 171 m

Observación

El informe se hizo hace 32 minutos, a las 09:30 UTC
Viento 6 kt del este-noreste
Temperatura 32°C
Humedad 49%
Presión 1006 hPa
Visibilidad: 7000 m
Nubes dispersas a una altura de 4000 ft
Cielo nuboso a una altura de 8300 ft

METAR: VLVT 230930Z 06006KT 7000 SCT040 BKN083 32/20 Q1006 NOSIG

Hora: 17:02 (10:02 UTC)

Pronóstico

El informe se hizo hace 5 horas y 2 minutos, a las 05:00 UTC
Pronóstico válido del 23 a las 06 UTC al 24 a las 06 UTC
Viento 6 kt del este
Visibilidad: 8000 m
Escasas nubes a una altura de 2000 ft
Nubes dispersas a una altura de 20000 ft
Temporalmente
del 23 a las 14 UTC al 23 a las 20 UTC
Visibilidad: 4000 m
Escasas nubes a una altura de 4000 ft
neblina

TAF: VLVT 230500Z 2306/2406 09006KT 8000 FEW020 SCT200 TEMPO 2314/2320 4000 BR FEW040

Observaciones y pronósticos meteorológicos de más de 4000 aeropuertos (mensajes METAR y TAF).

Los puntos amarillos y rojos representan las estaciones disponibles.

Ponga el ratón en el punto deseado para ver el nombre de la estación.

Haga clic para ver las observaciones y los pronósticos meteorológicos.

Para cambiar el mapa : haga clic en los botones verdes con una cruz de color negro para hacer un zoom, en el botón verde con un guión para alejar o en las flechas verdes para mapas adyacentes.


METAR-TAF: